METAR AND TAF INFORMATION
METAR FOR EGKB
ADDS - METARS form results

(1946 UTC 24 March 2019)
Data provider http://aviationweather.gov/metar/data/
 
METAR text: EGKB 241920Z 30007KT CAVOK 09/00 Q1029
Conditions at: EGKB (BIGGIN HILL , GB) observed 1920 UTC 24 March 2019
Temperature: 9.0°C (48°F)
Dewpoint: 0.0°C (32°F) [RH = 53%]
Pressure (altimeter): 30.38 inches Hg (1029.0 mb)
Winds: from the WNW (300 degrees) at 8 MPH (7 knots; 3.6 m/s)
Visibility: 6 or more miles (10+ km)
Ceiling: ceiling and visibility are OK
Clouds: unknown
Weather: no significant weather observed at this time

METAR text: EGKB 241850Z 30008KT CAVOK 09/00 Q1028
Conditions at: EGKB (BIGGIN HILL , GB) observed 1850 UTC 24 March 2019
Temperature: 9.0°C (48°F)
Dewpoint: 0.0°C (32°F) [RH = 53%]
Pressure (altimeter): 30.35 inches Hg (1028.0 mb)
Winds: from the WNW (300 degrees) at 9 MPH (8 knots; 4.1 m/s)
Visibility: 6 or more miles (10+ km)
Ceiling: ceiling and visibility are OK
Clouds: unknown
Weather: no significant weather observed at this time

Forecast for: EGKB (BIGGIN HILL , GB)
Text: TAF EGKB 241701Z 2418/2422 30010KT 9999 FEW045
Forecast period: 1800 to 2200 UTC 24 March 2019
Forecast type: FROM: standard forecast or significant change
Winds: from the WNW (300 degrees) at 12 MPH (10 knots; 5.1 m/s)
Visibility: 6 or more miles 10+ km)
Ceiling: at least 12,000 feet AGL
Clouds: few clouds at 4500 feet AGL
Weather: no significant weather forecast for this period

AIRPORT MAP

RUNWAY INFORMATION
Runway 03 Runway length 5912 ft Runway width 148 ft
Runway elevation 577 ft Runway displaced threshold 790 ft Runway heading 26
Runway 21 Runway length 5912 ft Runway width 148 ft
Runway elevation 517 ft Runway displaced threshold 0 ft Runway heading 206
Runway 11 Runway length 2598 ft Runway width 59 ft
Runway elevation 586 ft Runway displaced threshold 0 ft Runway heading 105
Runway 29 Runway length 2598 ft Runway width 59 ft
Runway elevation 598 ft Runway displaced threshold 0 ft Runway heading 285

AIRPORT FREQUENCIES
Type APP Name APP Frequency 129.4 MHZ
Type ATIS Name ATIS Frequency 135.675 MHZ
Type RDR Name THAMES RDR Frequency 132.7 MHZ
Type TWR Name TWR Frequency 134.8 MHZ

AIRPORT NEAR NAVIGATION AIDS
Type VOR-DME Name Biggin Frequency 115100 KHZ